sensor_id;sensor_type;location;lat;lon;timestamp;P1;durP1;ratioP1;P2;durP2;ratioP2
29916;SDS011;16786;49.466;11.068;2022-09-12T00:01:10;9.70;;;7.57;;
29916;SDS011;16786;49.466;11.068;2022-09-12T00:03:40;12.43;;;9.00;;
29916;SDS011;16786;49.466;11.068;2022-09-12T00:06:09;10.57;;;8.32;;
29916;SDS011;16786;49.466;11.068;2022-09-12T00:08:44;12.38;;;8.40;;
29916;SDS011;16786;49.466;11.068;2022-09-12T00:11:12;10.10;;;8.15;;
29916;SDS011;16786;49.466;11.068;2022-09-12T00:13:40;12.80;;;8.73;;
29916;SDS011;16786;49.466;11.068;2022-09-12T00:16:15;14.35;;;8.65;;
29916;SDS011;16786;49.466;11.068;2022-09-12T00:18:45;11.23;;;8.82;;
29916;SDS011;16786;49.466;11.068;2022-09-12T00:21:13;12.30;;;8.57;;
29916;SDS011;16786;49.466;11.068;2022-09-12T00:23:41;12.02;;;7.80;;
29916;SDS011;16786;49.466;11.068;2022-09-12T00:26:08;10.63;;;8.52;;
29916;SDS011;16786;49.466;11.068;2022-09-12T00:28:37;10.20;;;7.80;;
29916;SDS011;16786;49.466;11.068;2022-09-12T00:31:06;11.35;;;8.80;;
29916;SDS011;16786;49.466;11.068;2022-09-12T00:33:36;10.00;;;8.07;;
29916;SDS011;16786;49.466;11.068;2022-09-12T00:36:22;12.27;;;8.85;;
29916;SDS011;16786;49.466;11.068;2022-09-12T00:38:51;10.43;;;8.07;;
29916;SDS011;16786;49.466;11.068;2022-09-12T00:41:21;10.38;;;8.20;;
29916;SDS011;16786;49.466;11.068;2022-09-12T00:43:55;11.68;;;8.32;;
29916;SDS011;16786;49.466;11.068;2022-09-12T00:46:27;9.88;;;7.93;;
29916;SDS011;16786;49.466;11.068;2022-09-12T00:49:25;10.77;;;8.43;;
29916;SDS011;16786;49.466;11.068;2022-09-12T00:54:36;9.98;;;8.25;;
29916;SDS011;16786;49.466;11.068;2022-09-12T00:57:08;11.85;;;9.23;;
29916;SDS011;16786;49.466;11.068;2022-09-12T00:59:40;10.73;;;8.48;;
29916;SDS011;16786;49.466;11.068;2022-09-12T01:02:17;12.10;;;8.85;;
29916;SDS011;16786;49.466;11.068;2022-09-12T01:04:45;10.98;;;8.40;;
29916;SDS011;16786;49.466;11.068;2022-09-12T01:07:13;10.98;;;8.73;;
29916;SDS011;16786;49.466;11.068;2022-09-12T01:09:41;12.93;;;9.30;;
29916;SDS011;16786;49.466;11.068;2022-09-12T01:12:11;11.65;;;8.60;;
29916;SDS011;16786;49.466;11.068;2022-09-12T01:14:40;9.85;;;8.18;;
29916;SDS011;16786;49.466;11.068;2022-09-12T01:17:12;10.43;;;8.38;;
29916;SDS011;16786;49.466;11.068;2022-09-12T01:25:09;10.10;;;7.82;;
29916;SDS011;16786;49.466;11.068;2022-09-12T01:31:04;10.82;;;8.57;;
29916;SDS011;16786;49.466;11.068;2022-09-12T01:50:51;11.73;;;9.38;;
29916;SDS011;16786;49.466;11.068;2022-09-12T01:53:41;12.90;;;9.13;;
29916;SDS011;16786;49.466;11.068;2022-09-12T01:56:16;14.27;;;9.48;;
29916;SDS011;16786;49.466;11.068;2022-09-12T01:59:00;11.75;;;9.52;;
29916;SDS011;16786;49.466;11.068;2022-09-12T02:01:56;12.35;;;9.70;;
29916;SDS011;16786;49.466;11.068;2022-09-12T02:04:24;13.00;;;8.48;;
29916;SDS011;16786;49.466;11.068;2022-09-12T02:09:37;9.77;;;7.45;;
29916;SDS011;16786;49.466;11.068;2022-09-12T02:12:19;10.43;;;7.47;;
29916;SDS011;16786;49.466;11.068;2022-09-12T02:14:52;10.90;;;7.15;;
29916;SDS011;16786;49.466;11.068;2022-09-12T02:17:25;8.40;;;6.85;;
29916;SDS011;16786;49.466;11.068;2022-09-12T02:19:54;8.90;;;7.13;;
29916;SDS011;16786;49.466;11.068;2022-09-12T02:22:46;10.55;;;6.95;;
29916;SDS011;16786;49.466;11.068;2022-09-12T02:25:16;8.48;;;6.68;;
29916;SDS011;16786;49.466;11.068;2022-09-12T02:27:47;10.88;;;8.60;;
29916;SDS011;16786;49.466;11.068;2022-09-12T02:30:19;13.15;;;8.88;;
29916;SDS011;16786;49.466;11.068;2022-09-12T02:33:00;12.52;;;9.00;;
29916;SDS011;16786;49.466;11.068;2022-09-12T02:35:50;11.23;;;7.78;;
29916;SDS011;16786;49.466;11.068;2022-09-12T02:38:47;11.53;;;8.47;;
29916;SDS011;16786;49.466;11.068;2022-09-12T02:41:17;11.45;;;8.65;;
29916;SDS011;16786;49.466;11.068;2022-09-12T02:43:46;10.52;;;7.65;;
29916;SDS011;16786;49.466;11.068;2022-09-12T02:46:23;11.52;;;8.43;;
29916;SDS011;16786;49.466;11.068;2022-09-12T02:48:54;10.70;;;8.18;;
29916;SDS011;16786;49.466;11.068;2022-09-12T02:51:22;10.75;;;8.70;;
29916;SDS011;16786;49.466;11.068;2022-09-12T02:53:51;9.95;;;8.05;;
29916;SDS011;16786;49.466;11.068;2022-09-12T02:56:22;12.05;;;9.30;;
29916;SDS011;16786;49.466;11.068;2022-09-12T02:58:53;11.00;;;8.38;;
29916;SDS011;16786;49.466;11.068;2022-09-12T03:01:39;11.70;;;8.60;;
29916;SDS011;16786;49.466;11.068;2022-09-12T03:10:22;10.50;;;7.32;;
29916;SDS011;16786;49.466;11.068;2022-09-12T03:18:45;11.27;;;8.57;;
29916;SDS011;16786;49.466;11.068;2022-09-12T03:24:28;11.55;;;8.55;;
29916;SDS011;16786;49.466;11.068;2022-09-12T03:29:47;12.07;;;7.97;;
29916;SDS011;16786;49.466;11.068;2022-09-12T03:32:16;12.52;;;7.97;;
29916;SDS011;16786;49.466;11.068;2022-09-12T03:34:43;11.93;;;9.02;;
29916;SDS011;16786;49.466;11.068;2022-09-12T03:37:10;13.18;;;8.93;;
29916;SDS011;16786;49.466;11.068;2022-09-12T03:39:38;9.68;;;7.88;;
29916;SDS011;16786;49.466;11.068;2022-09-12T03:42:05;10.68;;;8.18;;
29916;SDS011;16786;49.466;11.068;2022-09-12T03:44:33;9.55;;;7.07;;
29916;SDS011;16786;49.466;11.068;2022-09-12T03:47:00;13.90;;;7.78;;
29916;SDS011;16786;49.466;11.068;2022-09-12T03:49:28;9.48;;;6.95;;
29916;SDS011;16786;49.466;11.068;2022-09-12T03:51:55;10.45;;;6.97;;
29916;SDS011;16786;49.466;11.068;2022-09-12T03:54:22;12.25;;;7.50;;
29916;SDS011;16786;49.466;11.068;2022-09-12T03:56:50;9.73;;;6.80;;
29916;SDS011;16786;49.466;11.068;2022-09-12T03:59:17;10.20;;;7.65;;
29916;SDS011;16786;49.466;11.068;2022-09-12T04:01:44;9.80;;;7.32;;
29916;SDS011;16786;49.466;11.068;2022-09-12T04:04:11;9.82;;;6.97;;
29916;SDS011;16786;49.466;11.068;2022-09-12T04:06:39;11.90;;;7.38;;
29916;SDS011;16786;49.466;11.068;2022-09-12T04:09:07;10.52;;;7.13;;
29916;SDS011;16786;49.466;11.068;2022-09-12T04:11:35;12.05;;;7.50;;
29916;SDS011;16786;49.466;11.068;2022-09-12T04:14:02;8.70;;;6.57;;
29916;SDS011;16786;49.466;11.068;2022-09-12T04:16:30;12.00;;;8.32;;
29916;SDS011;16786;49.466;11.068;2022-09-12T04:18:58;11.38;;;7.78;;
29916;SDS011;16786;49.466;11.068;2022-09-12T04:21:25;9.93;;;7.70;;
29916;SDS011;16786;49.466;11.068;2022-09-12T04:23:52;9.43;;;7.03;;
29916;SDS011;16786;49.466;11.068;2022-09-12T04:26:20;11.20;;;7.13;;
29916;SDS011;16786;49.466;11.068;2022-09-12T04:28:47;10.23;;;7.22;;
29916;SDS011;16786;49.466;11.068;2022-09-12T04:33:59;10.48;;;7.70;;
29916;SDS011;16786;49.466;11.068;2022-09-12T04:36:27;9.85;;;7.47;;
29916;SDS011;16786;49.466;11.068;2022-09-12T04:38:55;11.75;;;7.68;;
29916;SDS011;16786;49.466;11.068;2022-09-12T04:41:23;10.55;;;7.18;;
29916;SDS011;16786;49.466;11.068;2022-09-12T04:43:54;10.38;;;8.07;;
29916;SDS011;16786;49.466;11.068;2022-09-12T04:46:28;10.15;;;7.95;;
29916;SDS011;16786;49.466;11.068;2022-09-12T04:48:58;11.43;;;7.43;;
29916;SDS011;16786;49.466;11.068;2022-09-12T04:51:27;10.35;;;7.80;;
29916;SDS011;16786;49.466;11.068;2022-09-12T04:53:58;11.07;;;7.28;;
29916;SDS011;16786;49.466;11.068;2022-09-12T04:56:28;11.77;;;8.48;;
29916;SDS011;16786;49.466;11.068;2022-09-12T04:58:56;11.95;;;8.45;;
29916;SDS011;16786;49.466;11.068;2022-09-12T05:01:25;10.75;;;7.75;;
29916;SDS011;16786;49.466;11.068;2022-09-12T05:03:54;10.63;;;7.93;;
29916;SDS011;16786;49.466;11.068;2022-09-12T05:06:22;11.57;;;8.18;;
29916;SDS011;16786;49.466;11.068;2022-09-12T05:08:52;11.23;;;7.47;;
29916;SDS011;16786;49.466;11.068;2022-09-12T05:11:21;9.13;;;6.88;;
29916;SDS011;16786;49.466;11.068;2022-09-12T05:13:58;11.23;;;6.97;;
29916;SDS011;16786;49.466;11.068;2022-09-12T05:16:26;10.15;;;6.47;;
29916;SDS011;16786;49.466;11.068;2022-09-12T05:18:54;12.52;;;8.32;;
29916;SDS011;16786;49.466;11.068;2022-09-12T05:21:24;13.55;;;9.25;;
29916;SDS011;16786;49.466;11.068;2022-09-12T05:23:52;12.23;;;8.50;;
29916;SDS011;16786;49.466;11.068;2022-09-12T05:26:22;13.70;;;10.02;;
29916;SDS011;16786;49.466;11.068;2022-09-12T05:28:50;17.58;;;10.52;;
29916;SDS011;16786;49.466;11.068;2022-09-12T05:31:21;16.27;;;10.40;;
29916;SDS011;16786;49.466;11.068;2022-09-12T05:33:51;15.32;;;10.50;;
29916;SDS011;16786;49.466;11.068;2022-09-12T05:36:29;15.00;;;9.75;;
29916;SDS011;16786;49.466;11.068;2022-09-12T05:39:00;12.43;;;8.80;;
29916;SDS011;16786;49.466;11.068;2022-09-12T05:41:28;14.23;;;9.35;;
29916;SDS011;16786;49.466;11.068;2022-09-12T05:43:58;14.27;;;9.43;;
29916;SDS011;16786;49.466;11.068;2022-09-12T05:46:27;15.13;;;9.63;;
29916;SDS011;16786;49.466;11.068;2022-09-12T05:48:56;12.68;;;9.23;;
29916;SDS011;16786;49.466;11.068;2022-09-12T05:51:30;12.63;;;8.88;;
29916;SDS011;16786;49.466;11.068;2022-09-12T05:53:59;14.18;;;11.00;;
29916;SDS011;16786;49.466;11.068;2022-09-12T05:56:29;13.77;;;10.35;;
29916;SDS011;16786;49.466;11.068;2022-09-12T05:59:00;15.27;;;9.90;;
29916;SDS011;16786;49.466;11.068;2022-09-12T06:01:29;14.82;;;10.65;;
29916;SDS011;16786;49.466;11.068;2022-09-12T06:03:58;13.25;;;10.00;;
29916;SDS011;16786;49.466;11.068;2022-09-12T06:06:27;14.23;;;10.38;;
29916;SDS011;16786;49.466;11.068;2022-09-12T06:08:57;15.80;;;11.18;;
29916;SDS011;16786;49.466;11.068;2022-09-12T06:11:28;13.57;;;10.07;;
29916;SDS011;16786;49.466;11.068;2022-09-12T06:13:57;14.55;;;10.70;;
29916;SDS011;16786;49.466;11.068;2022-09-12T06:16:26;14.70;;;11.50;;
29916;SDS011;16786;49.466;11.068;2022-09-12T06:18:59;17.63;;;11.88;;
29916;SDS011;16786;49.466;11.068;2022-09-12T06:21:28;16.98;;;11.43;;
29916;SDS011;16786;49.466;11.068;2022-09-12T06:23:57;14.45;;;10.13;;
29916;SDS011;16786;49.466;11.068;2022-09-12T06:26:25;13.52;;;10.50;;
29916;SDS011;16786;49.466;11.068;2022-09-12T06:28:53;14.10;;;10.52;;
29916;SDS011;16786;49.466;11.068;2022-09-12T06:31:23;14.27;;;9.80;;
29916;SDS011;16786;49.466;11.068;2022-09-12T06:33:55;20.83;;;11.57;;
29916;SDS011;16786;49.466;11.068;2022-09-12T06:36:26;18.17;;;11.45;;
29916;SDS011;16786;49.466;11.068;2022-09-12T06:38:55;15.77;;;11.23;;
29916;SDS011;16786;49.466;11.068;2022-09-12T06:41:24;15.52;;;10.60;;
29916;SDS011;16786;49.466;11.068;2022-09-12T06:43:53;14.38;;;10.45;;
29916;SDS011;16786;49.466;11.068;2022-09-12T06:46:20;17.33;;;11.95;;
29916;SDS011;16786;49.466;11.068;2022-09-12T06:48:48;17.25;;;11.25;;
29916;SDS011;16786;49.466;11.068;2022-09-12T06:51:16;19.80;;;11.75;;
29916;SDS011;16786;49.466;11.068;2022-09-12T06:53:46;19.35;;;12.27;;
29916;SDS011;16786;49.466;11.068;2022-09-12T06:56:15;20.25;;;12.23;;
29916;SDS011;16786;49.466;11.068;2022-09-12T06:58:45;18.80;;;12.20;;
29916;SDS011;16786;49.466;11.068;2022-09-12T07:01:14;17.75;;;12.00;;
29916;SDS011;16786;49.466;11.068;2022-09-12T07:03:50;19.05;;;12.43;;
29916;SDS011;16786;49.466;11.068;2022-09-12T07:06:20;18.38;;;11.20;;
29916;SDS011;16786;49.466;11.068;2022-09-12T07:08:50;18.30;;;11.73;;
29916;SDS011;16786;49.466;11.068;2022-09-12T07:11:19;17.75;;;11.63;;
29916;SDS011;16786;49.466;11.068;2022-09-12T07:13:52;15.38;;;11.05;;
29916;SDS011;16786;49.466;11.068;2022-09-12T07:16:20;19.70;;;11.05;;
29916;SDS011;16786;49.466;11.068;2022-09-12T07:18:52;16.23;;;10.45;;
29916;SDS011;16786;49.466;11.068;2022-09-12T07:21:20;16.70;;;11.27;;
29916;SDS011;16786;49.466;11.068;2022-09-12T07:23:48;20.80;;;11.98;;
29916;SDS011;16786;49.466;11.068;2022-09-12T07:26:17;13.85;;;10.30;;
29916;SDS011;16786;49.466;11.068;2022-09-12T07:28:45;21.58;;;11.02;;
29916;SDS011;16786;49.466;11.068;2022-09-12T07:31:19;18.58;;;11.85;;
29916;SDS011;16786;49.466;11.068;2022-09-12T07:33:48;18.77;;;11.23;;
29916;SDS011;16786;49.466;11.068;2022-09-12T07:36:21;15.95;;;11.13;;
29916;SDS011;16786;49.466;11.068;2022-09-12T07:38:54;18.13;;;12.00;;
29916;SDS011;16786;49.466;11.068;2022-09-12T07:41:24;18.67;;;11.75;;
29916;SDS011;16786;49.466;11.068;2022-09-12T07:43:53;16.80;;;12.02;;
29916;SDS011;16786;49.466;11.068;2022-09-12T07:46:22;18.08;;;11.32;;
29916;SDS011;16786;49.466;11.068;2022-09-12T07:48:51;15.85;;;11.65;;
29916;SDS011;16786;49.466;11.068;2022-09-12T07:51:19;15.98;;;11.35;;
29916;SDS011;16786;49.466;11.068;2022-09-12T07:53:48;15.20;;;11.07;;
29916;SDS011;16786;49.466;11.068;2022-09-12T07:56:17;15.63;;;11.80;;
29916;SDS011;16786;49.466;11.068;2022-09-12T07:58:45;17.67;;;12.00;;
29916;SDS011;16786;49.466;11.068;2022-09-12T08:01:14;16.58;;;11.13;;
29916;SDS011;16786;49.466;11.068;2022-09-12T08:03:49;15.25;;;10.85;;
29916;SDS011;16786;49.466;11.068;2022-09-12T08:06:20;13.55;;;10.27;;
29916;SDS011;16786;49.466;11.068;2022-09-12T08:08:52;15.45;;;11.32;;
29916;SDS011;16786;49.466;11.068;2022-09-12T08:11:21;15.20;;;10.23;;
29916;SDS011;16786;49.466;11.068;2022-09-12T08:13:49;13.90;;;10.57;;
29916;SDS011;16786;49.466;11.068;2022-09-12T08:16:23;14.98;;;11.52;;
29916;SDS011;16786;49.466;11.068;2022-09-12T08:18:52;16.55;;;11.77;;
29916;SDS011;16786;49.466;11.068;2022-09-12T08:21:20;14.45;;;11.23;;
29916;SDS011;16786;49.466;11.068;2022-09-12T08:23:57;15.95;;;11.55;;
29916;SDS011;16786;49.466;11.068;2022-09-12T08:26:29;17.27;;;12.68;;
29916;SDS011;16786;49.466;11.068;2022-09-12T08:28:58;15.77;;;12.38;;
29916;SDS011;16786;49.466;11.068;2022-09-12T08:31:26;16.92;;;11.77;;
29916;SDS011;16786;49.466;11.068;2022-09-12T08:33:54;13.30;;;10.52;;
29916;SDS011;16786;49.466;11.068;2022-09-12T08:36:23;14.13;;;11.70;;
29916;SDS011;16786;49.466;11.068;2022-09-12T08:38:56;16.17;;;12.57;;
29916;SDS011;16786;49.466;11.068;2022-09-12T08:52:15;15.43;;;12.13;;
29916;SDS011;16786;49.466;11.068;2022-09-12T08:54:52;13.32;;;10.63;;
29916;SDS011;16786;49.466;11.068;2022-09-12T08:57:22;14.52;;;11.68;;
29916;SDS011;16786;49.466;11.068;2022-09-12T08:59:50;13.80;;;10.93;;
29916;SDS011;16786;49.466;11.068;2022-09-12T09:08:28;14.25;;;9.80;;
29916;SDS011;16786;49.466;11.068;2022-09-12T09:11:23;11.50;;;9.35;;
29916;SDS011;16786;49.466;11.068;2022-09-12T09:17:10;11.02;;;8.65;;
29916;SDS011;16786;49.466;11.068;2022-09-12T09:19:43;11.30;;;8.98;;
29916;SDS011;16786;49.466;11.068;2022-09-12T09:22:27;14.55;;;8.98;;
29916;SDS011;16786;49.466;11.068;2022-09-12T09:25:04;10.73;;;7.95;;
29916;SDS011;16786;49.466;11.068;2022-09-12T09:28:00;8.60;;;7.50;;
29916;SDS011;16786;49.466;11.068;2022-09-12T09:30:31;11.27;;;8.27;;
29916;SDS011;16786;49.466;11.068;2022-09-12T09:33:02;9.98;;;8.18;;
29916;SDS011;16786;49.466;11.068;2022-09-12T09:40:51;8.35;;;7.38;;
29916;SDS011;16786;49.466;11.068;2022-09-12T09:43:32;10.68;;;8.00;;
29916;SDS011;16786;49.466;11.068;2022-09-12T09:46:00;8.27;;;6.88;;
29916;SDS011;16786;49.466;11.068;2022-09-12T09:50:59;9.15;;;7.55;;
29916;SDS011;16786;49.466;11.068;2022-09-12T09:53:36;13.73;;;8.75;;
29916;SDS011;16786;49.466;11.068;2022-09-12T09:58:48;7.05;;;6.03;;
29916;SDS011;16786;49.466;11.068;2022-09-12T10:01:16;7.80;;;6.95;;
29916;SDS011;16786;49.466;11.068;2022-09-12T10:03:51;9.40;;;7.28;;
29916;SDS011;16786;49.466;11.068;2022-09-12T10:06:25;9.27;;;7.72;;
29916;SDS011;16786;49.466;11.068;2022-09-12T10:09:16;9.35;;;8.13;;
29916;SDS011;16786;49.466;11.068;2022-09-12T10:11:47;8.88;;;7.70;;
29916;SDS011;16786;49.466;11.068;2022-09-12T10:14:29;10.05;;;7.38;;
29916;SDS011;16786;49.466;11.068;2022-09-12T10:17:01;13.57;;;7.85;;
29916;SDS011;16786;49.466;11.068;2022-09-12T10:19:48;13.55;;;9.23;;
29916;SDS011;16786;49.466;11.068;2022-09-12T10:22:35;10.65;;;7.28;;
29916;SDS011;16786;49.466;11.068;2022-09-12T10:25:04;10.80;;;8.38;;
29916;SDS011;16786;49.466;11.068;2022-09-12T10:27:38;11.65;;;8.25;;
29916;SDS011;16786;49.466;11.068;2022-09-12T10:32:45;10.57;;;8.60;;
29916;SDS011;16786;49.466;11.068;2022-09-12T10:35:21;8.82;;;7.60;;
29916;SDS011;16786;49.466;11.068;2022-09-12T10:40:26;8.70;;;7.80;;
29916;SDS011;16786;49.466;11.068;2022-09-12T10:42:57;9.30;;;7.88;;
29916;SDS011;16786;49.466;11.068;2022-09-12T10:45:30;8.48;;;7.57;;
29916;SDS011;16786;49.466;11.068;2022-09-12T10:48:02;8.07;;;7.28;;
29916;SDS011;16786;49.466;11.068;2022-09-12T10:50:59;9.35;;;7.82;;
29916;SDS011;16786;49.466;11.068;2022-09-12T10:56:13;7.65;;;6.78;;
29916;SDS011;16786;49.466;11.068;2022-09-12T11:01:40;9.02;;;7.93;;
29916;SDS011;16786;49.466;11.068;2022-09-12T11:18:39;10.43;;;8.20;;
29916;SDS011;16786;49.466;11.068;2022-09-12T11:21:29;9.90;;;8.85;;
29916;SDS011;16786;49.466;11.068;2022-09-12T11:24:21;10.07;;;9.07;;
29916;SDS011;16786;49.466;11.068;2022-09-12T11:29:50;10.20;;;9.20;;
29916;SDS011;16786;49.466;11.068;2022-09-12T11:40:39;9.60;;;8.70;;
29916;SDS011;16786;49.466;11.068;2022-09-12T11:51:25;8.75;;;7.85;;
29916;SDS011;16786;49.466;11.068;2022-09-12T11:54:19;9.95;;;9.02;;
29916;SDS011;16786;49.466;11.068;2022-09-12T11:57:05;9.77;;;8.85;;
29916;SDS011;16786;49.466;11.068;2022-09-12T11:59:40;9.40;;;8.50;;
29916;SDS011;16786;49.466;11.068;2022-09-12T12:02:24;9.50;;;8.52;;
29916;SDS011;16786;49.466;11.068;2022-09-12T12:07:53;10.52;;;8.30;;
29916;SDS011;16786;49.466;11.068;2022-09-12T12:13:00;8.35;;;7.63;;
29916;SDS011;16786;49.466;11.068;2022-09-12T12:15:39;8.73;;;7.93;;
29916;SDS011;16786;49.466;11.068;2022-09-12T12:18:22;9.23;;;8.18;;
29916;SDS011;16786;49.466;11.068;2022-09-12T12:20:52;10.23;;;9.30;;
29916;SDS011;16786;49.466;11.068;2022-09-12T12:23:30;8.85;;;8.02;;
29916;SDS011;16786;49.466;11.068;2022-09-12T12:26:01;8.95;;;8.15;;
29916;SDS011;16786;49.466;11.068;2022-09-12T12:28:54;9.95;;;9.02;;
29916;SDS011;16786;49.466;11.068;2022-09-12T12:31:24;8.50;;;7.70;;
29916;SDS011;16786;49.466;11.068;2022-09-12T12:33:53;10.10;;;9.02;;
29916;SDS011;16786;49.466;11.068;2022-09-12T12:36:33;9.25;;;8.25;;
29916;SDS011;16786;49.466;11.068;2022-09-12T12:41:58;10.27;;;9.27;;
29916;SDS011;16786;49.466;11.068;2022-09-12T12:49:49;9.73;;;8.70;;
29916;SDS011;16786;49.466;11.068;2022-09-12T12:52:47;8.20;;;7.40;;
29916;SDS011;16786;49.466;11.068;2022-09-12T12:55:26;8.23;;;7.53;;
29916;SDS011;16786;49.466;11.068;2022-09-12T12:57:59;11.55;;;7.75;;
29916;SDS011;16786;49.466;11.068;2022-09-12T13:00:29;8.98;;;8.07;;
29916;SDS011;16786;49.466;11.068;2022-09-12T13:05:38;9.32;;;8.52;;
29916;SDS011;16786;49.466;11.068;2022-09-12T13:10:49;9.48;;;8.68;;
29916;SDS011;16786;49.466;11.068;2022-09-12T13:15:56;9.40;;;8.60;;
29916;SDS011;16786;49.466;11.068;2022-09-12T13:18:25;9.60;;;8.60;;
29916;SDS011;16786;49.466;11.068;2022-09-12T13:21:01;10.32;;;9.25;;
29916;SDS011;16786;49.466;11.068;2022-09-12T13:23:41;10.07;;;8.77;;
29916;SDS011;16786;49.466;11.068;2022-09-12T13:26:13;11.02;;;9.93;;
29916;SDS011;16786;49.466;11.068;2022-09-12T13:28:48;9.73;;;8.93;;
29916;SDS011;16786;49.466;11.068;2022-09-12T13:33:52;10.88;;;9.85;;
29916;SDS011;16786;49.466;11.068;2022-09-12T13:39:11;9.93;;;8.93;;
29916;SDS011;16786;49.466;11.068;2022-09-12T13:41:54;10.10;;;9.20;;
29916;SDS011;16786;49.466;11.068;2022-09-12T13:44:41;9.95;;;9.02;;
29916;SDS011;16786;49.466;11.068;2022-09-12T13:47:15;10.27;;;9.27;;
29916;SDS011;16786;49.466;11.068;2022-09-12T13:49:56;9.23;;;8.40;;
29916;SDS011;16786;49.466;11.068;2022-09-12T13:52:24;9.88;;;8.90;;
29916;SDS011;16786;49.466;11.068;2022-09-12T13:54:56;10.43;;;9.15;;
29916;SDS011;16786;49.466;11.068;2022-09-12T13:57:37;10.40;;;9.23;;
29916;SDS011;16786;49.466;11.068;2022-09-12T14:00:11;10.77;;;9.73;;
29916;SDS011;16786;49.466;11.068;2022-09-12T14:02:45;10.50;;;9.50;;
29916;SDS011;16786;49.466;11.068;2022-09-12T14:05:20;11.30;;;9.20;;
29916;SDS011;16786;49.466;11.068;2022-09-12T14:10:21;9.77;;;8.75;;
29916;SDS011;16786;49.466;11.068;2022-09-12T14:12:58;9.52;;;8.68;;
29916;SDS011;16786;49.466;11.068;2022-09-12T14:15:31;9.52;;;8.63;;
29916;SDS011;16786;49.466;11.068;2022-09-12T14:18:02;8.98;;;8.18;;
29916;SDS011;16786;49.466;11.068;2022-09-12T14:20:31;9.63;;;8.57;;
29916;SDS011;16786;49.466;11.068;2022-09-12T14:23:03;9.40;;;8.50;;
29916;SDS011;16786;49.466;11.068;2022-09-12T14:25:41;9.45;;;8.65;;
29916;SDS011;16786;49.466;11.068;2022-09-12T14:28:13;9.50;;;8.60;;
29916;SDS011;16786;49.466;11.068;2022-09-12T14:33:28;9.13;;;8.32;;
29916;SDS011;16786;49.466;11.068;2022-09-12T14:38:48;9.25;;;8.35;;
29916;SDS011;16786;49.466;11.068;2022-09-12T14:41:22;9.25;;;8.45;;
29916;SDS011;16786;49.466;11.068;2022-09-12T14:43:56;10.00;;;8.30;;
29916;SDS011;16786;49.466;11.068;2022-09-12T14:46:29;9.10;;;7.93;;
29916;SDS011;16786;49.466;11.068;2022-09-12T14:49:34;8.02;;;7.32;;
29916;SDS011;16786;49.466;11.068;2022-09-12T14:51:58;9.13;;;8.23;;
29916;SDS011;16786;49.466;11.068;2022-09-12T14:57:00;8.40;;;7.60;;
29916;SDS011;16786;49.466;11.068;2022-09-12T15:05:13;7.72;;;7.03;;
29916;SDS011;16786;49.466;11.068;2022-09-12T15:07:54;8.25;;;7.53;;
29916;SDS011;16786;49.466;11.068;2022-09-12T15:10:25;7.72;;;7.03;;
29916;SDS011;16786;49.466;11.068;2022-09-12T15:15:38;8.77;;;8.07;;
29916;SDS011;16786;49.466;11.068;2022-09-12T15:18:07;10.57;;;7.80;;
29916;SDS011;16786;49.466;11.068;2022-09-12T15:20:34;8.55;;;7.72;;
29916;SDS011;16786;49.466;11.068;2022-09-12T15:23:05;8.38;;;7.53;;
29916;SDS011;16786;49.466;11.068;2022-09-12T15:25:38;8.63;;;7.82;;
29916;SDS011;16786;49.466;11.068;2022-09-12T15:28:14;7.95;;;7.25;;
29916;SDS011;16786;49.466;11.068;2022-09-12T15:30:45;7.65;;;6.90;;
29916;SDS011;16786;49.466;11.068;2022-09-12T15:33:15;7.35;;;6.75;;
29916;SDS011;16786;49.466;11.068;2022-09-12T15:35:44;11.30;;;7.43;;
29916;SDS011;16786;49.466;11.068;2022-09-12T15:38:11;7.20;;;6.60;;
29916;SDS011;16786;49.466;11.068;2022-09-12T15:40:42;7.38;;;6.78;;
29916;SDS011;16786;49.466;11.068;2022-09-12T15:43:11;7.05;;;6.45;;
29916;SDS011;16786;49.466;11.068;2022-09-12T15:45:40;7.78;;;7.07;;
29916;SDS011;16786;49.466;11.068;2022-09-12T15:48:14;7.30;;;6.60;;
29916;SDS011;16786;49.466;11.068;2022-09-12T15:50:42;7.20;;;6.63;;
29916;SDS011;16786;49.466;11.068;2022-09-12T15:53:13;7.20;;;6.60;;
29916;SDS011;16786;49.466;11.068;2022-09-12T15:55:42;6.80;;;6.30;;
29916;SDS011;16786;49.466;11.068;2022-09-12T15:58:10;7.22;;;6.57;;
29916;SDS011;16786;49.466;11.068;2022-09-12T16:00:37;7.28;;;6.68;;
29916;SDS011;16786;49.466;11.068;2022-09-12T16:03:05;7.70;;;7.03;;
29916;SDS011;16786;49.466;11.068;2022-09-12T16:05:32;7.22;;;6.63;;
29916;SDS011;16786;49.466;11.068;2022-09-12T16:08:00;7.95;;;7.25;;
29916;SDS011;16786;49.466;11.068;2022-09-12T16:10:28;7.25;;;6.68;;
29916;SDS011;16786;49.466;11.068;2022-09-12T16:12:56;7.38;;;6.68;;
29916;SDS011;16786;49.466;11.068;2022-09-12T16:15:25;6.45;;;5.95;;
29916;SDS011;16786;49.466;11.068;2022-09-12T16:17:52;7.10;;;6.40;;
29916;SDS011;16786;49.466;11.068;2022-09-12T16:20:20;6.53;;;5.97;;
29916;SDS011;16786;49.466;11.068;2022-09-12T16:22:48;7.00;;;6.40;;
29916;SDS011;16786;49.466;11.068;2022-09-12T16:25:16;6.90;;;6.20;;
29916;SDS011;16786;49.466;11.068;2022-09-12T16:27:43;7.07;;;6.38;;
29916;SDS011;16786;49.466;11.068;2022-09-12T16:30:11;6.75;;;6.20;;
29916;SDS011;16786;49.466;11.068;2022-09-12T16:32:38;7.18;;;6.47;;
29916;SDS011;16786;49.466;11.068;2022-09-12T16:35:06;6.90;;;6.32;;
29916;SDS011;16786;49.466;11.068;2022-09-12T16:37:34;7.38;;;6.57;;
29916;SDS011;16786;49.466;11.068;2022-09-12T16:40:02;7.22;;;6.55;;
29916;SDS011;16786;49.466;11.068;2022-09-12T16:42:30;7.32;;;6.72;;
29916;SDS011;16786;49.466;11.068;2022-09-12T16:44:57;6.93;;;6.30;;
29916;SDS011;16786;49.466;11.068;2022-09-12T16:47:25;6.85;;;6.25;;
29916;SDS011;16786;49.466;11.068;2022-09-12T16:49:52;6.82;;;6.22;;
29916;SDS011;16786;49.466;11.068;2022-09-12T16:52:19;7.03;;;6.13;;
29916;SDS011;16786;49.466;11.068;2022-09-12T16:54:46;8.18;;;7.47;;
29916;SDS011;16786;49.466;11.068;2022-09-12T16:57:14;7.45;;;6.75;;
29916;SDS011;16786;49.466;11.068;2022-09-12T16:59:41;8.10;;;7.32;;
29916;SDS011;16786;49.466;11.068;2022-09-12T17:02:12;7.38;;;6.68;;
29916;SDS011;16786;49.466;11.068;2022-09-12T17:04:40;7.32;;;6.72;;
29916;SDS011;16786;49.466;11.068;2022-09-12T17:07:08;8.07;;;7.00;;
29916;SDS011;16786;49.466;11.068;2022-09-12T17:09:35;7.78;;;7.07;;
29916;SDS011;16786;49.466;11.068;2022-09-12T17:12:05;9.25;;;7.00;;
29916;SDS011;16786;49.466;11.068;2022-09-12T17:14:32;7.95;;;7.25;;
29916;SDS011;16786;49.466;11.068;2022-09-12T17:17:00;7.53;;;6.82;;
29916;SDS011;16786;49.466;11.068;2022-09-12T17:19:27;8.32;;;7.63;;
29916;SDS011;16786;49.466;11.068;2022-09-12T17:21:58;8.30;;;7.28;;
29916;SDS011;16786;49.466;11.068;2022-09-12T17:24:26;8.43;;;7.63;;
29916;SDS011;16786;49.466;11.068;2022-09-12T17:26:54;7.90;;;7.20;;
29916;SDS011;16786;49.466;11.068;2022-09-12T17:29:22;8.95;;;8.18;;
29916;SDS011;16786;49.466;11.068;2022-09-12T17:31:50;9.23;;;7.75;;
29916;SDS011;16786;49.466;11.068;2022-09-12T17:34:17;7.95;;;7.25;;
29916;SDS011;16786;49.466;11.068;2022-09-12T17:36:45;8.00;;;7.20;;
29916;SDS011;16786;49.466;11.068;2022-09-12T17:39:14;8.13;;;7.43;;
29916;SDS011;16786;49.466;11.068;2022-09-12T17:41:41;9.27;;;8.35;;
29916;SDS011;16786;49.466;11.068;2022-09-12T17:44:12;8.57;;;7.78;;